Sandersdale, Massachusetts
Current Conditions -  °F | °C
As of 1:54 PM on Thursday 27 Nov 2014 (Local Time) from KORH Reporting Station
Overcast Overcast  
Wind Chill: 23°   Ceiling: 1100
Heat Index: 31°   Visibility: 10mi
Dew Point: 26°   Wind: 9mph
Humidity: 82%   Direction: 320°NW
Pressure: 29.91"   Gusts: NA
Location:  42.0598°N, 72.0339°W
Report Text: KORH 271854Z 32008KT 10SM BKN011 OVC030 M01/M03 A2991 RMK AO2 SLP140 T10061033
Loading
Personal Weather Stations






























Interactive Weather Map New forecast layout! Learn more

10-Day Weather Forecast

Advertisements
Track Severe Weather on mobile